Time;durP1;ratioP1;P1;durP2;ratioP2;P2;SDS_P1;SDS_P2;PMS_P1;PMS_P2;Temp;Humidity;BMP_temperature;BMP_pressure;BME280_temperature;BME280_humidity;BME280_pressure;Samples;Min_cycle;Max_cycle;Signal;HPM_P1;HPM_P2
2024/01/25 00:02:09;;;;;;;16.23;4.03;;;10.90;70.10;;;;;;5023562;28;20212;-71
2024/01/25 00:04:35;;;;;;;19.83;4.93;;;10.90;70.10;;;;;;5025136;28;20421;-71
2024/01/25 00:07:01;;;;;;;24.83;4.63;;;10.90;70.10;;;;;;5025425;28;20653;-72
2024/01/25 00:09:26;;;;;;;12.10;2.90;;;11.00;70.20;;;;;;5028065;28;20488;-70
2024/01/25 00:11:52;;;;;;;22.20;4.50;;;11.00;70.20;;;;;;5026453;28;20209;-71
2024/01/25 00:14:17;;;;;;;19.63;4.57;;;11.00;70.40;;;;;;5022391;28;20186;-71
2024/01/25 00:16:43;;;;;;;19.80;4.30;;;10.90;70.50;;;;;;5023607;28;20185;-72
2024/01/25 00:19:09;;;;;;;22.93;4.37;;;11.00;70.50;;;;;;5030390;28;20190;-70
2024/01/25 00:21:34;;;;;;;16.87;2.83;;;11.00;70.50;;;;;;5023949;28;20220;-71
2024/01/25 00:24:00;;;;;;;14.57;4.33;;;11.00;70.70;;;;;;5024505;28;20751;-72
2024/01/25 00:26:25;;;;;;;17.50;3.80;;;11.00;71.00;;;;;;5026835;28;20295;-70
2024/01/25 00:28:51;;;;;;;23.90;6.30;;;11.00;71.30;;;;;;5030076;28;20193;-71
2024/01/25 00:31:16;;;;;;;24.17;4.70;;;11.00;71.40;;;;;;5022266;28;20312;-72
2024/01/25 00:33:42;;;;;;;13.17;4.57;;;11.00;71.60;;;;;;5020769;28;20185;-73
2024/01/25 00:36:08;;;;;;;15.73;3.77;;;11.00;71.70;;;;;;5030799;28;20212;-71
2024/01/25 00:38:34;;;;;;;14.13;3.93;;;11.00;71.70;;;;;;5025165;28;20650;-70
2024/01/25 00:41:00;;;;;;;22.00;4.27;;;11.00;72.00;;;;;;5029967;28;20494;-71
2024/01/25 00:43:26;;;;;;;24.17;3.63;;;11.00;72.10;;;;;;5021922;28;20460;-72
2024/01/25 00:45:52;;;;;;;20.17;4.40;;;11.00;72.30;;;;;;5034063;28;20526;-71
2024/01/25 00:48:18;;;;;;;21.77;4.53;;;11.00;72.40;;;;;;5029531;28;20420;-72
2024/01/25 00:50:44;;;;;;;21.10;4.93;;;11.00;72.60;;;;;;5040553;28;20544;-71
2024/01/25 00:53:10;;;;;;;18.23;4.80;;;11.00;72.90;;;;;;5033559;28;20182;-71
2024/01/25 00:55:36;;;;;;;20.00;5.27;;;11.00;72.90;;;;;;5037594;28;20487;-71
2024/01/25 00:58:02;;;;;;;16.80;5.33;;;11.00;73.00;;;;;;5034594;28;20180;-71
2024/01/25 01:00:28;;;;;;;13.30;4.23;;;11.00;73.00;;;;;;5033165;28;20486;-72
2024/01/25 01:02:55;;;;;;;21.17;5.37;;;11.00;73.20;;;;;;5022999;28;20421;-72
2024/01/25 01:05:21;;;;;;;18.20;4.37;;;11.00;73.20;;;;;;5031488;28;20419;-74
2024/01/25 01:07:47;;;;;;;18.73;4.77;;;11.00;73.50;;;;;;5023138;28;20417;-74
2024/01/25 01:10:14;;;;;;;23.47;4.37;;;10.90;73.50;;;;;;5030111;28;20456;-71
2024/01/25 01:12:39;;;;;;;23.33;4.40;;;10.90;73.30;;;;;;5025691;28;20420;-71
2024/01/25 01:15:05;;;;;;;13.83;4.00;;;11.00;73.50;;;;;;5029305;28;20766;-72
2024/01/25 01:17:31;;;;;;;11.03;4.10;;;11.00;73.50;;;;;;5028092;28;20187;-72
2024/01/25 01:19:57;;;;;;;16.90;4.20;;;10.90;73.60;;;;;;5029922;28;20449;-72
2024/01/25 01:22:22;;;;;;;18.77;4.20;;;11.00;73.50;;;;;;5032856;28;20176;-72
2024/01/25 01:24:48;;;;;;;28.13;4.90;;;11.00;73.50;;;;;;5031105;28;20446;-71
2024/01/25 01:27:13;;;;;;;15.93;4.27;;;11.00;73.50;;;;;;5026595;28;20185;-73
2024/01/25 01:29:39;;;;;;;14.63;4.07;;;11.00;73.30;;;;;;5032702;28;20260;-70
2024/01/25 01:32:05;;;;;;;21.83;4.00;;;11.00;73.00;;;;;;5026550;28;20208;-73
2024/01/25 01:34:31;;;;;;;21.00;4.07;;;11.00;73.00;;;;;;5024724;28;20421;-69
2024/01/25 01:36:58;;;;;;;20.20;4.87;;;10.90;73.30;;;;;;5031447;28;20188;-71
2024/01/25 01:39:23;;;;;;;13.77;4.00;;;11.00;73.20;;;;;;5026783;28;20197;-73
2024/01/25 01:41:49;;;;;;;12.17;3.13;;;11.00;73.30;;;;;;5020773;28;20550;-72
2024/01/25 01:44:15;;;;;;;19.13;4.60;;;11.00;73.00;;;;;;5022861;28;20213;-71
2024/01/25 01:46:42;;;;;;;16.83;5.00;;;11.00;73.00;;;;;;5034453;28;20429;-70
2024/01/25 01:49:10;;;;;;;20.20;4.50;;;11.00;73.00;;;;;;5038008;28;20416;-71
2024/01/25 01:51:37;;;;;;;22.43;4.00;;;10.90;73.00;;;;;;5029595;28;20978;-75
2024/01/25 01:54:05;;;;;;;19.90;4.23;;;10.90;73.20;;;;;;5020979;28;20434;-71
2024/01/25 01:56:31;;;;;;;16.47;5.17;;;10.90;73.20;;;;;;5026073;28;20437;-71
2024/01/25 01:59:01;;;;;;;17.80;3.90;;;10.90;73.00;;;;;;5029735;28;20427;-71
2024/01/25 02:01:28;;;;;;;23.53;4.43;;;10.90;73.00;;;;;;5029053;28;20476;-71
2024/01/25 02:03:53;;;;;;;14.43;3.53;;;10.90;72.90;;;;;;5025118;28;20425;-71
2024/01/25 02:06:19;;;;;;;18.70;4.63;;;10.90;72.30;;;;;;5036295;28;20431;-71
2024/01/25 02:08:46;;;;;;;14.93;3.83;;;10.90;72.30;;;;;;5026289;28;20188;-71
2024/01/25 02:11:14;;;;;;;19.63;4.27;;;10.90;72.30;;;;;;5027666;28;20275;-71
2024/01/25 02:13:40;;;;;;;19.63;4.47;;;10.80;72.10;;;;;;5020493;28;20432;-70
2024/01/25 02:16:07;;;;;;;26.40;4.77;;;10.80;72.10;;;;;;5029260;28;20434;-73
2024/01/25 02:18:33;;;;;;;18.90;4.80;;;10.90;72.10;;;;;;5026790;28;20184;-70
2024/01/25 02:20:59;;;;;;;15.60;4.10;;;10.90;72.10;;;;;;5020047;28;20585;-72
2024/01/25 02:23:25;;;;;;;20.00;4.73;;;10.80;72.00;;;;;;5019436;28;20865;-72
2024/01/25 02:25:50;;;;;;;18.47;4.10;;;10.80;72.10;;;;;;5024299;28;20193;-71
2024/01/25 02:28:16;;;;;;;17.40;4.67;;;10.70;72.30;;;;;;5031467;28;20649;-70
2024/01/25 02:30:42;;;;;;;14.30;4.07;;;10.70;72.40;;;;;;5021968;28;20205;-71
2024/01/25 02:33:08;;;;;;;11.77;3.60;;;10.70;72.40;;;;;;5028761;28;20181;-72
2024/01/25 02:35:33;;;;;;;19.97;4.27;;;10.70;72.30;;;;;;5027257;28;20189;-72
2024/01/25 02:37:59;;;;;;;13.70;3.67;;;10.70;72.60;;;;;;5028457;28;20226;-72
2024/01/25 02:40:25;;;;;;;17.27;3.53;;;10.70;72.30;;;;;;5020764;28;20221;-74
2024/01/25 02:42:50;;;;;;;14.20;3.67;;;10.70;72.00;;;;;;5028678;28;20189;-71
2024/01/25 02:45:16;;;;;;;18.53;4.20;;;10.70;72.30;;;;;;5020926;28;20189;-71
2024/01/25 02:47:41;;;;;;;22.93;4.40;;;10.70;72.30;;;;;;5023018;28;20769;-70
2024/01/25 02:50:07;;;;;;;10.17;3.60;;;10.70;72.10;;;;;;5016746;28;20273;-71
2024/01/25 02:52:33;;;;;;;17.20;3.90;;;10.60;72.10;;;;;;5025941;28;20186;-70
2024/01/25 02:55:00;;;;;;;16.27;3.87;;;10.60;72.30;;;;;;5021971;28;20431;-70
2024/01/25 02:57:26;;;;;;;17.87;4.03;;;10.60;72.30;;;;;;5024340;28;20193;-71
2024/01/25 02:59:51;;;;;;;20.03;4.43;;;10.60;72.40;;;;;;5019357;28;20453;-70
2024/01/25 03:02:19;;;;;;;16.30;3.23;;;10.60;72.10;;;;;;5020827;28;20450;-71
2024/01/25 03:04:45;;;;;;;12.00;4.63;;;10.60;72.40;;;;;;5021028;28;20266;-69
2024/01/25 03:07:11;;;;;;;13.17;3.00;;;10.60;72.30;;;;;;5024590;28;20427;-72
2024/01/25 03:09:37;;;;;;;16.73;3.40;;;10.60;72.00;;;;;;5013335;28;20514;-71
2024/01/25 03:12:02;;;;;;;23.03;4.47;;;10.60;72.10;;;;;;5021620;28;20559;-69
2024/01/25 03:14:28;;;;;;;23.40;4.47;;;10.60;72.30;;;;;;5017995;28;20193;-70
2024/01/25 03:16:54;;;;;;;18.83;4.00;;;10.50;72.40;;;;;;5019595;28;20546;-70
2024/01/25 03:19:20;;;;;;;17.57;3.27;;;10.50;72.70;;;;;;5018635;28;20177;-70
2024/01/25 03:21:45;;;;;;;15.20;4.43;;;10.50;72.70;;;;;;5018705;28;20209;-70
2024/01/25 03:24:11;;;;;;;17.10;3.50;;;10.50;72.90;;;;;;5019518;28;20186;-71
2024/01/25 03:26:36;;;;;;;18.00;4.23;;;10.50;73.20;;;;;;5022365;28;20194;-70
2024/01/25 03:29:02;;;;;;;20.73;4.20;;;10.50;73.00;;;;;;5028548;28;20177;-71
2024/01/25 03:31:28;;;;;;;19.13;3.93;;;10.40;73.20;;;;;;5021802;28;20690;-73
2024/01/25 03:33:53;;;;;;;18.07;4.40;;;10.40;73.30;;;;;;5028112;28;20196;-72
2024/01/25 03:36:19;;;;;;;13.77;4.00;;;10.30;73.60;;;;;;5023319;28;20209;-71
2024/01/25 03:38:45;;;;;;;21.20;4.07;;;10.40;73.70;;;;;;5025048;28;20208;-71
2024/01/25 03:41:10;;;;;;;16.67;3.87;;;10.40;73.60;;;;;;5022222;28;20228;-70
2024/01/25 03:43:36;;;;;;;19.00;4.30;;;10.40;73.70;;;;;;5027218;28;20189;-73
2024/01/25 03:46:02;;;;;;;18.73;4.83;;;10.40;73.70;;;;;;5021583;28;20208;-72
2024/01/25 03:48:28;;;;;;;16.93;3.70;;;10.40;73.70;;;;;;5024885;28;20208;-70
2024/01/25 03:50:57;;;;;;;21.57;4.10;;;10.40;74.00;;;;;;5022115;28;20460;-72
2024/01/25 03:53:23;;;;;;;16.70;4.10;;;10.40;73.90;;;;;;5024349;28;20438;-71
2024/01/25 03:55:49;;;;;;;14.50;3.97;;;10.40;73.90;;;;;;5018214;28;20413;-72
2024/01/25 03:58:18;;;;;;;18.83;3.70;;;10.30;74.20;;;;;;5023530;28;20940;-71
2024/01/25 04:00:44;;;;;;;12.50;3.80;;;10.30;74.20;;;;;;5021436;28;20274;-72
2024/01/25 04:03:11;;;;;;;16.77;4.30;;;10.30;74.20;;;;;;5027515;28;20932;-71
2024/01/25 04:05:37;;;;;;;17.57;4.07;;;10.30;74.30;;;;;;5018680;28;20201;-72
2024/01/25 04:08:03;;;;;;;18.07;4.77;;;10.30;74.30;;;;;;5056268;28;20969;-71
2024/01/25 04:10:28;;;;;;;14.43;4.20;;;10.30;74.50;;;;;;5023665;28;20547;-72
2024/01/25 04:12:54;;;;;;;16.80;3.60;;;10.20;74.60;;;;;;5030283;28;20434;-71
2024/01/25 04:15:20;;;;;;;16.20;3.50;;;10.20;74.60;;;;;;5025933;28;20201;-71
2024/01/25 04:17:45;;;;;;;18.30;3.93;;;10.20;74.80;;;;;;5028480;28;20189;-71
2024/01/25 04:20:12;;;;;;;19.33;4.20;;;10.20;74.80;;;;;;5021585;28;20588;-71
2024/01/25 04:22:38;;;;;;;14.27;3.83;;;10.20;74.80;;;;;;5027995;28;20235;-71
2024/01/25 04:25:04;;;;;;;17.00;4.90;;;10.20;74.60;;;;;;5024414;28;20416;-70
2024/01/25 04:27:30;;;;;;;8.93;3.70;;;10.20;74.90;;;;;;5027176;28;20977;-71
2024/01/25 04:29:55;;;;;;;16.47;4.80;;;10.20;74.80;;;;;;5023359;28;20500;-69
2024/01/25 04:32:21;;;;;;;14.10;3.60;;;10.20;74.90;;;;;;5027803;28;20188;-72
2024/01/25 04:34:47;;;;;;;18.33;4.77;;;10.20;74.90;;;;;;5026459;28;20701;-71
2024/01/25 04:37:13;;;;;;;20.60;4.20;;;10.30;74.80;;;;;;5025875;28;20185;-70
2024/01/25 04:39:39;;;;;;;17.83;4.40;;;10.20;74.80;;;;;;5018288;28;20536;-69
2024/01/25 04:42:05;;;;;;;14.10;3.53;;;10.20;75.20;;;;;;5024174;28;20506;-71
2024/01/25 04:44:31;;;;;;;13.13;3.40;;;10.10;75.20;;;;;;5033551;28;20221;-71
2024/01/25 04:46:56;;;;;;;19.50;4.10;;;10.10;75.50;;;;;;5034873;28;20447;-71
2024/01/25 04:49:22;;;;;;;17.33;3.80;;;10.10;74.80;;;;;;5028133;28;20263;-72
2024/01/25 04:51:48;;;;;;;17.30;4.83;;;10.00;74.00;;;;;;5016895;28;20209;-72
2024/01/25 04:54:15;;;;;;;14.67;4.77;;;10.00;74.20;;;;;;5025662;28;20212;-71
2024/01/25 04:56:41;;;;;;;17.83;4.97;;;10.00;74.20;;;;;;5019691;28;20186;-72
2024/01/25 04:59:07;;;;;;;18.00;3.87;;;10.00;74.30;;;;;;5038649;28;20477;-72
2024/01/25 05:01:32;;;;;;;22.57;3.60;;;10.00;74.30;;;;;;5023893;28;20499;-71
2024/01/25 05:03:58;;;;;;;15.53;4.33;;;10.00;73.90;;;;;;5030889;28;20177;-72
2024/01/25 05:06:24;;;;;;;13.80;3.73;;;9.90;73.50;;;;;;5025772;28;20181;-70
2024/01/25 05:08:49;;;;;;;19.90;4.50;;;9.90;73.30;;;;;;5036268;28;20202;-73
2024/01/25 05:11:15;;;;;;;21.67;4.77;;;9.80;73.30;;;;;;5027766;28;20701;-71
2024/01/25 05:13:40;;;;;;;14.13;3.53;;;9.80;73.60;;;;;;5025133;28;20182;-70
2024/01/25 05:16:06;;;;;;;25.40;4.50;;;9.70;73.20;;;;;;5026145;28;20181;-70
2024/01/25 05:18:32;;;;;;;12.60;3.03;;;9.70;73.20;;;;;;5032313;28;20630;-71
2024/01/25 05:20:57;;;;;;;12.77;4.00;;;9.70;73.00;;;;;;5028244;28;20255;-71
2024/01/25 05:23:23;;;;;;;17.67;4.27;;;9.70;73.20;;;;;;5022700;28;20189;-72
2024/01/25 05:25:49;;;;;;;11.53;3.97;;;9.70;72.90;;;;;;5024382;28;21148;-72
2024/01/25 05:28:14;;;;;;;15.57;4.60;;;9.60;73.20;;;;;;5031152;28;20181;-71
2024/01/25 05:30:40;;;;;;;15.80;3.70;;;9.50;73.30;;;;;;5017754;28;20296;-72
2024/01/25 05:33:06;;;;;;;16.03;4.20;;;9.50;73.50;;;;;;5023736;28;20261;-74
2024/01/25 05:35:34;;;;;;;26.07;4.60;;;9.40;73.30;;;;;;5025448;28;20191;-71
2024/01/25 05:38:00;;;;;;;18.07;5.00;;;9.40;73.50;;;;;;5029215;28;20180;-72
2024/01/25 05:40:26;;;;;;;19.63;3.80;;;9.50;73.30;;;;;;5025003;28;20479;-72
2024/01/25 05:42:52;;;;;;;12.47;4.20;;;9.40;73.20;;;;;;5020642;28;20440;-72
2024/01/25 05:45:21;;;;;;;16.83;4.03;;;9.40;73.20;;;;;;5037014;28;20426;-70
2024/01/25 05:47:50;;;;;;;24.30;4.40;;;9.40;72.90;;;;;;5027949;28;20436;-71
2024/01/25 05:50:16;;;;;;;13.37;3.83;;;9.30;72.60;;;;;;5029988;28;20575;-71
2024/01/25 05:52:42;;;;;;;17.67;4.67;;;9.30;73.00;;;;;;5018586;28;20467;-72
2024/01/25 05:55:08;;;;;;;23.73;4.60;;;9.30;73.20;;;;;;5031080;28;20416;-69
2024/01/25 05:57:36;;;;;;;16.20;3.80;;;9.30;73.20;;;;;;5026994;28;20264;-72
2024/01/25 06:00:02;;;;;;;13.67;4.80;;;9.20;73.50;;;;;;5032728;28;20483;-72
2024/01/25 06:02:28;;;;;;;16.73;3.43;;;9.20;73.90;;;;;;5023935;28;20440;-71
2024/01/25 06:04:54;;;;;;;20.73;4.40;;;9.30;74.00;;;;;;5034172;28;20518;-73
2024/01/25 06:07:20;;;;;;;12.90;4.27;;;9.20;73.90;;;;;;5022431;28;20182;-72
2024/01/25 06:09:46;;;;;;;20.37;3.90;;;9.10;74.30;;;;;;5032214;28;20444;-72
2024/01/25 06:12:11;;;;;;;22.10;4.20;;;9.10;74.50;;;;;;5024325;28;20173;-72
2024/01/25 06:14:37;;;;;;;16.33;4.40;;;9.10;75.10;;;;;;5027476;28;20200;-70
2024/01/25 06:17:03;;;;;;;16.33;4.23;;;9.00;75.20;;;;;;5028511;28;20733;-72
2024/01/25 06:19:29;;;;;;;17.13;4.60;;;9.00;75.70;;;;;;5030387;28;20539;-71
2024/01/25 06:21:54;;;;;;;17.50;3.70;;;8.90;75.90;;;;;;5016923;28;20714;-70
2024/01/25 06:24:20;;;;;;;17.80;4.10;;;9.00;76.50;;;;;;5021795;28;20193;-71
2024/01/25 06:26:45;;;;;;;21.50;5.07;;;8.90;76.50;;;;;;5030381;28;20613;-70
2024/01/25 06:29:11;;;;;;;18.17;4.63;;;8.90;77.00;;;;;;5026426;28;20192;-70
2024/01/25 06:31:45;;;;;;;17.50;4.53;;;8.90;77.00;;;;;;5022212;28;20682;-72
2024/01/25 06:34:11;;;;;;;20.13;4.80;;;8.80;77.60;;;;;;5021062;28;20624;-71
2024/01/25 06:36:37;;;;;;;22.50;4.90;;;8.80;78.00;;;;;;5025473;28;20498;-72
2024/01/25 06:39:06;;;;;;;18.83;5.00;;;8.80;78.30;;;;;;5024731;28;20507;-72
2024/01/25 06:41:32;;;;;;;22.90;5.00;;;8.80;78.00;;;;;;5019793;28;20236;-72
2024/01/25 06:43:57;;;;;;;28.27;4.40;;;8.80;77.80;;;;;;5022782;28;20427;-73
2024/01/25 06:46:23;;;;;;;18.50;4.23;;;8.90;77.70;;;;;;5032804;28;20211;-73
2024/01/25 06:48:50;;;;;;;22.50;4.70;;;8.80;77.80;;;;;;5028405;28;20180;-73
2024/01/25 06:51:16;;;;;;;18.23;4.30;;;8.70;78.00;;;;;;5024040;28;20250;-71
2024/01/25 06:53:41;;;;;;;18.77;4.23;;;8.70;78.30;;;;;;5021350;28;20825;-72
2024/01/25 06:56:07;;;;;;;16.83;4.73;;;8.60;78.60;;;;;;5030715;28;20215;-73
2024/01/25 06:58:32;;;;;;;15.53;4.43;;;8.60;78.60;;;;;;5026380;28;20713;-72
2024/01/25 07:00:59;;;;;;;22.33;4.77;;;8.60;78.70;;;;;;5039854;28;20286;-71
2024/01/25 07:03:24;;;;;;;20.47;5.00;;;8.60;78.70;;;;;;5028635;28;20173;-71
2024/01/25 07:05:50;;;;;;;25.67;5.20;;;8.60;78.60;;;;;;5038815;28;20428;-71
2024/01/25 07:08:15;;;;;;;14.00;4.30;;;8.60;78.90;;;;;;5029625;28;20177;-73
2024/01/25 07:10:42;;;;;;;25.50;5.47;;;8.60;78.60;;;;;;5038018;28;20209;-73
2024/01/25 07:13:07;;;;;;;36.60;6.07;;;8.60;78.70;;;;;;5025904;28;20527;-70
2024/01/25 07:15:33;;;;;;;27.00;5.03;;;8.60;78.70;;;;;;5034655;28;20428;-71
2024/01/25 07:17:59;;;;;;;27.23;5.80;;;8.60;78.90;;;;;;5031325;28;20193;-71
2024/01/25 07:20:24;;;;;;;35.53;6.23;;;8.60;78.90;;;;;;5039390;28;20308;-71
2024/01/25 07:22:50;;;;;;;18.43;4.60;;;8.60;78.70;;;;;;5022759;28;20193;-71
2024/01/25 07:25:16;;;;;;;22.40;4.97;;;8.60;78.60;;;;;;5027879;28;20410;-73
2024/01/25 07:27:45;;;;;;;28.97;6.43;;;8.50;78.60;;;;;;5027571;28;20662;-71
2024/01/25 07:30:12;;;;;;;15.40;4.83;;;8.60;78.90;;;;;;5027213;28;20215;-72
2024/01/25 07:32:39;;;;;;;32.50;5.67;;;8.60;78.90;;;;;;5024888;28;20416;-71
2024/01/25 07:35:05;;;;;;;19.87;4.97;;;8.60;78.60;;;;;;5030745;28;20426;-72
2024/01/25 07:37:31;;;;;;;18.40;5.20;;;8.60;78.40;;;;;;5025613;28;20810;-70
2024/01/25 07:39:56;;;;;;;15.53;4.63;;;8.50;78.40;;;;;;5028336;28;20428;-70
2024/01/25 07:42:22;;;;;;;20.77;5.40;;;8.50;78.60;;;;;;5029370;28;20197;-71
2024/01/25 07:44:49;;;;;;;25.30;5.10;;;8.50;78.60;;;;;;5025150;28;20178;-72
2024/01/25 07:47:14;;;;;;;20.93;6.47;;;8.50;78.60;;;;;;5039389;28;20188;-72
2024/01/25 07:49:43;;;;;;;22.97;5.33;;;8.50;78.60;;;;;;5027726;28;20421;-71
2024/01/25 07:52:08;;;;;;;23.90;5.50;;;8.40;78.40;;;;;;5027964;28;20685;-74
2024/01/25 07:54:34;;;;;;;17.83;4.70;;;8.50;78.40;;;;;;5023506;28;20420;-71
2024/01/25 07:56:59;;;;;;;12.77;3.93;;;8.40;78.40;;;;;;5039154;28;20181;-73
2024/01/25 07:59:25;;;;;;;24.63;6.40;;;8.50;78.60;;;;;;5026525;28;20201;-73
2024/01/25 08:01:51;;;;;;;13.77;4.07;;;8.50;78.10;;;;;;5028013;28;20888;-72
2024/01/25 08:04:16;;;;;;;21.27;5.57;;;8.50;78.00;;;;;;5021308;28;20182;-70
2024/01/25 08:06:42;;;;;;;34.33;5.30;;;8.50;78.30;;;;;;5036642;28;20236;-72
2024/01/25 08:09:08;;;;;;;21.67;4.87;;;8.50;78.40;;;;;;5024203;28;20188;-72
2024/01/25 08:11:34;;;;;;;20.10;5.20;;;8.50;78.00;;;;;;5025257;28;20209;-72
2024/01/25 08:14:00;;;;;;;19.00;4.83;;;8.40;77.70;;;;;;5025018;28;20411;-71
2024/01/25 08:16:26;;;;;;;21.80;5.77;;;8.40;77.70;;;;;;5035655;28;20182;-72
2024/01/25 08:18:52;;;;;;;22.20;5.30;;;8.40;77.70;;;;;;5026737;28;20968;-71
2024/01/25 08:21:17;;;;;;;15.00;4.30;;;8.50;77.70;;;;;;5029548;28;20217;-71
2024/01/25 08:23:43;;;;;;;17.20;4.77;;;8.50;77.00;;;;;;5022378;28;20475;-71
2024/01/25 08:26:12;;;;;;;14.07;4.40;;;8.60;77.00;;;;;;5033167;28;20653;-71
2024/01/25 08:28:44;;;;;;;10.07;4.83;;;8.60;76.20;;;;;;5030616;28;20180;-70
2024/01/25 08:31:11;;;;;;;20.23;4.63;;;8.60;76.20;;;;;;5022616;28;20835;-72
2024/01/25 08:33:36;;;;;;;19.40;5.37;;;8.60;76.20;;;;;;5025009;28;20420;-73
2024/01/25 08:36:02;;;;;;;16.90;4.53;;;8.60;75.50;;;;;;5033252;28;20423;-71
2024/01/25 08:38:28;;;;;;;20.60;4.13;;;8.70;75.20;;;;;;5030585;28;20181;-70
2024/01/25 08:40:54;;;;;;;26.00;5.50;;;8.60;75.20;;;;;;5024422;28;20862;-74
2024/01/25 08:43:19;;;;;;;17.67;4.63;;;8.70;75.10;;;;;;5024212;28;20213;-70
2024/01/25 08:45:45;;;;;;;19.53;4.20;;;8.70;75.10;;;;;;5027522;28;20178;-71
2024/01/25 08:48:13;;;;;;;22.83;5.10;;;8.80;74.60;;;;;;5033795;28;20184;-69
2024/01/25 08:50:38;;;;;;;19.50;4.27;;;8.90;74.20;;;;;;5027553;28;20830;-70
2024/01/25 08:53:05;;;;;;;21.67;4.50;;;8.80;74.00;;;;;;5023182;28;20422;-69
2024/01/25 08:55:31;;;;;;;13.27;4.50;;;8.80;74.30;;;;;;5025731;28;20209;-72
2024/01/25 08:57:56;;;;;;;15.80;4.53;;;8.90;73.70;;;;;;5040814;28;20464;-69
2024/01/25 09:00:22;;;;;;;16.47;4.43;;;8.90;73.90;;;;;;5019346;28;20472;-73
2024/01/25 09:02:48;;;;;;;17.17;4.20;;;9.00;73.70;;;;;;5023543;28;20701;-71
2024/01/25 09:05:14;;;;;;;12.17;3.80;;;8.90;73.70;;;;;;5019506;28;20413;-72
2024/01/25 09:07:41;;;;;;;12.37;4.33;;;9.00;73.90;;;;;;5029221;28;20415;-71
2024/01/25 09:10:07;;;;;;;16.10;4.80;;;9.00;73.90;;;;;;5024995;28;20446;-70
2024/01/25 09:12:34;;;;;;;20.33;5.13;;;9.00;73.70;;;;;;5026680;28;20436;-71
2024/01/25 09:15:00;;;;;;;13.67;5.20;;;9.00;73.50;;;;;;5026143;28;20426;-72
2024/01/25 09:17:26;;;;;;;12.80;4.63;;;9.00;73.20;;;;;;5030537;28;20440;-71
2024/01/25 09:19:52;;;;;;;16.00;4.27;;;9.20;72.60;;;;;;5024705;28;20432;-70
2024/01/25 09:22:19;;;;;;;22.93;3.80;;;9.20;72.70;;;;;;5028196;28;20216;-71
2024/01/25 09:24:45;;;;;;;21.57;4.77;;;9.40;71.80;;;;;;5025321;28;20181;-71
2024/01/25 09:27:12;;;;;;;21.93;4.60;;;9.50;71.60;;;;;;5037613;28;20521;-72
2024/01/25 09:29:38;;;;;;;25.23;4.20;;;9.50;71.30;;;;;;5030103;28;20441;-70
2024/01/25 09:32:08;;;;;;;18.60;5.03;;;9.50;71.40;;;;;;5016780;28;20455;-71
2024/01/25 09:34:38;;;;;;;15.13;3.80;;;9.50;69.90;;;;;;5024982;28;20842;-72
2024/01/25 09:37:04;;;;;;;31.47;5.30;;;9.50;70.20;;;;;;5027361;28;20417;-70
2024/01/25 09:39:31;;;;;;;14.03;4.77;;;9.70;70.20;;;;;;5022620;28;20427;-71
2024/01/25 09:41:57;;;;;;;20.40;4.67;;;9.60;69.90;;;;;;5021359;28;21044;-70
2024/01/25 09:44:23;;;;;;;25.63;5.93;;;9.70;70.10;;;;;;5028696;28;20451;-70
2024/01/25 09:46:50;;;;;;;22.00;4.70;;;9.80;69.70;;;;;;5026385;28;20953;-70
2024/01/25 09:49:16;;;;;;;28.03;6.40;;;10.00;68.90;;;;;;5030483;28;20433;-70
2024/01/25 09:51:43;;;;;;;25.43;4.53;;;10.10;68.30;;;;;;5015256;28;20463;-72
2024/01/25 09:54:09;;;;;;;16.83;3.70;;;10.10;68.50;;;;;;5024732;28;20477;-70
2024/01/25 09:56:36;;;;;;;23.20;5.13;;;10.20;68.20;;;;;;5019390;28;20419;-69
2024/01/25 09:59:03;;;;;;;25.00;4.53;;;10.40;68.00;;;;;;5037041;28;20469;-72
2024/01/25 10:01:28;;;;;;;11.30;3.70;;;10.40;67.50;;;;;;5021282;28;20506;-73
2024/01/25 10:03:57;;;;;;;12.83;3.57;;;10.40;67.90;;;;;;5026379;28;20453;-72
2024/01/25 10:06:23;;;;;;;16.70;4.00;;;10.30;67.60;;;;;;5019437;28;20274;-72
2024/01/25 10:08:49;;;;;;;17.37;3.77;;;10.40;67.70;;;;;;5029985;28;20460;-71
2024/01/25 10:11:15;;;;;;;18.33;3.80;;;10.40;67.20;;;;;;5028452;28;21051;-72
2024/01/25 10:13:45;;;;;;;14.37;3.70;;;10.40;67.00;;;;;;5024640;28;20413;-70
2024/01/25 10:16:16;;;;;;;13.10;4.10;;;10.30;67.00;;;;;;5024812;28;20408;-71
2024/01/25 10:18:43;;;;;;;10.77;3.50;;;10.50;67.00;;;;;;5031450;28;20424;-70
2024/01/25 10:21:12;;;;;;;16.43;4.00;;;10.50;67.00;;;;;;5024789;28;20515;-72
2024/01/25 10:23:38;;;;;;;17.40;4.03;;;10.60;66.90;;;;;;5018662;28;20444;-71
2024/01/25 10:26:04;;;;;;;17.33;4.53;;;10.60;66.90;;;;;;5025330;28;20512;-71
2024/01/25 10:28:31;;;;;;;15.43;4.83;;;10.70;66.90;;;;;;5025220;28;20508;-70
2024/01/25 10:30:59;;;;;;;14.13;4.03;;;10.60;67.00;;;;;;5020782;28;20213;-72
2024/01/25 10:33:27;;;;;;;12.93;3.67;;;10.70;66.70;;;;;;5019734;28;20412;-71
2024/01/25 10:35:55;;;;;;;13.87;3.80;;;10.60;66.90;;;;;;5036194;28;20423;-72
2024/01/25 10:38:21;;;;;;;15.13;3.70;;;10.60;67.30;;;;;;5028156;28;20463;-73
2024/01/25 10:40:47;;;;;;;14.63;3.50;;;10.60;67.20;;;;;;5031352;28;20475;-72
2024/01/25 10:43:13;;;;;;;15.70;3.80;;;10.80;66.90;;;;;;5021159;28;20413;-72
2024/01/25 10:45:39;;;;;;;19.33;4.17;;;11.00;66.70;;;;;;5036293;28;20458;-69
2024/01/25 10:48:07;;;;;;;21.73;4.33;;;11.10;66.90;;;;;;5023223;28;20930;-72
2024/01/25 10:50:32;;;;;;;9.43;3.53;;;11.30;66.30;;;;;;5031816;28;20212;-71
2024/01/25 10:53:00;;;;;;;17.50;5.20;;;11.40;66.10;;;;;;5027391;28;20428;-72
2024/01/25 10:55:26;;;;;;;28.63;3.80;;;11.40;65.80;;;;;;5037714;28;20180;-70
2024/01/25 10:57:52;;;;;;;15.57;4.50;;;11.30;65.80;;;;;;5046368;28;20975;-71
2024/01/25 11:00:18;;;;;;;13.90;3.97;;;11.20;65.80;;;;;;5049442;28;20491;-73
2024/01/25 11:02:45;;;;;;;14.43;3.57;;;11.30;66.00;;;;;;5039390;28;20423;-71
2024/01/25 11:05:15;;;;;;;19.43;5.00;;;11.40;65.80;;;;;;5042625;28;20188;-72
2024/01/25 11:07:48;;;;;;;11.63;3.50;;;11.40;65.70;;;;;;5028182;28;20420;-71
2024/01/25 11:10:17;;;;;;;21.43;3.23;;;11.40;65.40;;;;;;5036732;28;20482;-72
2024/01/25 11:12:57;;;;;;;21.93;4.90;;;11.60;65.10;;;;;;5025584;28;20971;-71
2024/01/25 11:15:34;;;;;;;13.30;4.20;;;12.00;64.50;;;;;;5027930;28;20940;-72
2024/01/25 11:18:01;;;;;;;14.43;4.00;;;12.00;64.40;;;;;;5035769;28;20479;-70
2024/01/25 11:20:28;;;;;;;14.63;4.03;;;12.20;64.20;;;;;;5023041;28;20461;-72
2024/01/25 11:22:56;;;;;;;17.30;3.50;;;12.30;63.90;;;;;;5023515;28;20969;-72
2024/01/25 11:25:22;;;;;;;13.20;3.63;;;12.30;64.20;;;;;;5032468;28;20459;-71
2024/01/25 11:27:54;;;;;;;11.43;3.93;;;12.30;63.80;;;;;;5044397;28;20479;-71
2024/01/25 11:30:22;;;;;;;13.17;3.63;;;12.30;63.70;;;;;;5022125;28;20296;-73
2024/01/25 11:32:48;;;;;;;18.20;4.60;;;12.10;63.90;;;;;;5028528;28;20417;-72
2024/01/25 11:35:18;;;;;;;14.07;3.23;;;11.90;64.40;;;;;;5023188;28;20478;-71
2024/01/25 11:37:45;;;;;;;18.73;3.83;;;11.80;65.00;;;;;;5030401;28;20856;-72
2024/01/25 11:40:12;;;;;;;18.47;4.20;;;11.30;65.70;;;;;;5028754;28;20682;-72
2024/01/25 11:42:39;;;;;;;14.00;3.47;;;11.20;66.10;;;;;;5028840;28;21050;-71
2024/01/25 11:45:07;;;;;;;9.60;3.07;;;11.20;66.40;;;;;;5027253;28;20410;-72
2024/01/25 11:47:33;;;;;;;12.50;3.30;;;11.20;66.30;;;;;;5034165;28;20922;-71
2024/01/25 11:49:58;;;;;;;10.37;3.23;;;11.10;65.70;;;;;;5035321;28;20466;-71
2024/01/25 11:52:26;;;;;;;12.27;3.40;;;11.20;66.10;;;;;;5027781;28;20497;-73
2024/01/25 11:54:51;;;;;;;10.10;3.43;;;11.30;65.40;;;;;;5033703;28;20189;-70
2024/01/25 11:57:18;;;;;;;12.73;3.50;;;11.40;64.70;;;;;;5035240;28;20438;-70
2024/01/25 11:59:45;;;;;;;12.37;3.40;;;11.50;64.70;;;;;;5027395;28;20204;-72
2024/01/25 12:02:12;;;;;;;8.27;3.60;;;11.70;64.70;;;;;;5027309;28;20530;-71
2024/01/25 12:04:39;;;;;;;14.27;3.20;;;11.80;64.20;;;;;;5031297;28;20864;-70
2024/01/25 12:07:04;;;;;;;16.60;4.27;;;11.80;63.90;;;;;;5028442;28;20412;-71
2024/01/25 12:09:30;;;;;;;6.37;2.93;;;12.00;63.90;;;;;;5024978;28;20913;-71
2024/01/25 12:11:56;;;;;;;9.43;3.33;;;12.20;63.50;;;;;;5028940;28;20219;-73
2024/01/25 12:14:24;;;;;;;11.17;2.90;;;12.30;63.70;;;;;;5032013;28;20241;-72
2024/01/25 12:16:50;;;;;;;17.67;3.73;;;12.00;63.80;;;;;;5027166;28;20187;-73
2024/01/25 12:19:16;;;;;;;9.70;3.10;;;12.00;64.10;;;;;;5036664;28;20513;-72
2024/01/25 12:21:45;;;;;;;15.33;3.77;;;12.10;64.20;;;;;;5020993;28;20476;-72
2024/01/25 12:24:10;;;;;;;17.77;3.30;;;12.00;64.80;;;;;;5032533;28;20531;-71
2024/01/25 12:26:37;;;;;;;19.13;3.90;;;11.80;65.60;;;;;;5028117;28;20853;-72
2024/01/25 12:29:03;;;;;;;16.93;3.60;;;11.60;66.00;;;;;;5045049;28;20668;-71
2024/01/25 12:31:28;;;;;;;18.77;4.60;;;11.20;66.70;;;;;;5020307;28;20464;-72
2024/01/25 12:33:54;;;;;;;12.00;3.73;;;11.40;66.70;;;;;;5022914;28;20663;-74
2024/01/25 12:36:20;;;;;;;14.37;3.37;;;11.60;66.70;;;;;;5025222;28;20630;-71